sensor_id;sensor_type;location;lat;lon;timestamp;temperature;humidity
42617;DHT22;28250;52.320;0.360;2023-02-28T00:00:18;0.20;99.90
42617;DHT22;28250;52.320;0.360;2023-02-28T00:02:45;0.20;99.90
42617;DHT22;28250;52.320;0.360;2023-02-28T00:05:13;0.20;99.90
42617;DHT22;28250;52.320;0.360;2023-02-28T00:07:41;0.10;99.90
42617;DHT22;28250;52.320;0.360;2023-02-28T00:10:09;0.10;99.90
42617;DHT22;28250;52.320;0.360;2023-02-28T00:12:37;0.00;99.90
42617;DHT22;28250;52.320;0.360;2023-02-28T00:15:06;0.00;99.90
42617;DHT22;28250;52.320;0.360;2023-02-28T00:17:34;0.10;99.90
42617;DHT22;28250;52.320;0.360;2023-02-28T00:20:00;0.10;99.90
42617;DHT22;28250;52.320;0.360;2023-02-28T00:22:38;0.20;99.90
42617;DHT22;28250;52.320;0.360;2023-02-28T00:25:06;0.30;99.90
42617;DHT22;28250;52.320;0.360;2023-02-28T00:27:34;0.40;99.90
42617;DHT22;28250;52.320;0.360;2023-02-28T00:30:04;0.30;99.90
42617;DHT22;28250;52.320;0.360;2023-02-28T00:32:31;0.20;99.90
42617;DHT22;28250;52.320;0.360;2023-02-28T00:35:00;0.20;99.90
42617;DHT22;28250;52.320;0.360;2023-02-28T00:37:26;0.20;99.90
42617;DHT22;28250;52.320;0.360;2023-02-28T00:39:55;0.10;99.90
42617;DHT22;28250;52.320;0.360;2023-02-28T00:42:22;0.00;99.90
42617;DHT22;28250;52.320;0.360;2023-02-28T00:44:48;0.10;99.90
42617;DHT22;28250;52.320;0.360;2023-02-28T00:47:15;0.10;99.90
42617;DHT22;28250;52.320;0.360;2023-02-28T00:49:42;0.00;99.90
42617;DHT22;28250;52.320;0.360;2023-02-28T00:52:09;0.00;99.90
42617;DHT22;28250;52.320;0.360;2023-02-28T00:54:35;0.00;99.90
42617;DHT22;28250;52.320;0.360;2023-02-28T00:57:02;-0.10;99.90
42617;DHT22;28250;52.320;0.360;2023-02-28T00:59:28;-0.10;99.90
42617;DHT22;28250;52.320;0.360;2023-02-28T01:01:54;-0.10;99.90
42617;DHT22;28250;52.320;0.360;2023-02-28T01:04:21;-0.10;99.90
42617;DHT22;28250;52.320;0.360;2023-02-28T01:06:47;-0.10;99.90
42617;DHT22;28250;52.320;0.360;2023-02-28T01:09:13;-0.20;99.90
42617;DHT22;28250;52.320;0.360;2023-02-28T01:11:41;-0.20;99.90
42617;DHT22;28250;52.320;0.360;2023-02-28T01:14:12;-0.30;99.90
42617;DHT22;28250;52.320;0.360;2023-02-28T01:16:40;-0.10;99.90
42617;DHT22;28250;52.320;0.360;2023-02-28T01:19:06;-0.20;99.90
42617;DHT22;28250;52.320;0.360;2023-02-28T01:21:32;-0.20;99.90
42617;DHT22;28250;52.320;0.360;2023-02-28T01:24:00;-0.30;99.90
42617;DHT22;28250;52.320;0.360;2023-02-28T01:26:26;-0.30;99.90
42617;DHT22;28250;52.320;0.360;2023-02-28T01:28:53;-0.30;99.90
42617;DHT22;28250;52.320;0.360;2023-02-28T01:31:19;-0.30;99.90
42617;DHT22;28250;52.320;0.360;2023-02-28T01:33:46;-0.40;99.90
42617;DHT22;28250;52.320;0.360;2023-02-28T01:36:14;-0.50;99.90
42617;DHT22;28250;52.320;0.360;2023-02-28T01:38:42;-0.60;99.90
42617;DHT22;28250;52.320;0.360;2023-02-28T01:41:10;-0.60;99.90
42617;DHT22;28250;52.320;0.360;2023-02-28T01:46:08;-0.70;99.90
42617;DHT22;28250;52.320;0.360;2023-02-28T01:48:37;-0.70;99.90
42617;DHT22;28250;52.320;0.360;2023-02-28T01:51:08;-0.80;99.90
42617;DHT22;28250;52.320;0.360;2023-02-28T01:53:39;-0.80;99.90
42617;DHT22;28250;52.320;0.360;2023-02-28T01:56:12;-0.90;99.90
42617;DHT22;28250;52.320;0.360;2023-02-28T01:58:48;-0.80;99.90
42617;DHT22;28250;52.320;0.360;2023-02-28T02:01:15;-0.80;99.90
42617;DHT22;28250;52.320;0.360;2023-02-28T02:03:48;-0.70;99.90
42617;DHT22;28250;52.320;0.360;2023-02-28T02:06:22;-0.70;99.90
42617;DHT22;28250;52.320;0.360;2023-02-28T02:08:49;-0.80;99.90
42617;DHT22;28250;52.320;0.360;2023-02-28T02:11:17;-0.90;99.90
42617;DHT22;28250;52.320;0.360;2023-02-28T02:18:57;-0.80;99.90
42617;DHT22;28250;52.320;0.360;2023-02-28T02:30:18;-0.70;99.90
42617;DHT22;28250;52.320;0.360;2023-02-28T02:40:18;-0.80;99.90
42617;DHT22;28250;52.320;0.360;2023-02-28T02:45:22;-0.80;99.90
42617;DHT22;28250;52.320;0.360;2023-02-28T02:47:53;-0.80;99.90
42617;DHT22;28250;52.320;0.360;2023-02-28T02:50:24;-0.80;99.90
42617;DHT22;28250;52.320;0.360;2023-02-28T02:52:58;-0.70;99.90
42617;DHT22;28250;52.320;0.360;2023-02-28T02:55:28;-0.80;99.90
42617;DHT22;28250;52.320;0.360;2023-02-28T02:57:59;-0.90;99.90
42617;DHT22;28250;52.320;0.360;2023-02-28T03:00:31;-1.00;99.90
42617;DHT22;28250;52.320;0.360;2023-02-28T03:03:00;-1.20;99.90
42617;DHT22;28250;52.320;0.360;2023-02-28T03:05:29;-1.50;99.90
42617;DHT22;28250;52.320;0.360;2023-02-28T03:08:05;-1.60;99.90
42617;DHT22;28250;52.320;0.360;2023-02-28T03:10:35;-1.70;99.90
42617;DHT22;28250;52.320;0.360;2023-02-28T03:13:09;-1.70;99.90
42617;DHT22;28250;52.320;0.360;2023-02-28T03:18:54;-1.70;99.90
42617;DHT22;28250;52.320;0.360;2023-02-28T03:24:04;-1.70;99.90
42617;DHT22;28250;52.320;0.360;2023-02-28T03:26:36;-1.70;99.90
42617;DHT22;28250;52.320;0.360;2023-02-28T03:29:08;-1.70;99.90
42617;DHT22;28250;52.320;0.360;2023-02-28T03:34:17;-1.80;99.90
42617;DHT22;28250;52.320;0.360;2023-02-28T03:36:49;-1.80;99.90
42617;DHT22;28250;52.320;0.360;2023-02-28T03:39:20;-1.70;99.90
42617;DHT22;28250;52.320;0.360;2023-02-28T03:41:52;-1.70;99.90
42617;DHT22;28250;52.320;0.360;2023-02-28T03:44:24;-1.60;99.90
42617;DHT22;28250;52.320;0.360;2023-02-28T03:47:16;-1.60;99.90
42617;DHT22;28250;52.320;0.360;2023-02-28T03:49:46;-1.60;99.90
42617;DHT22;28250;52.320;0.360;2023-02-28T03:52:21;-1.50;99.90
42617;DHT22;28250;52.320;0.360;2023-02-28T03:54:50;-1.60;99.90
42617;DHT22;28250;52.320;0.360;2023-02-28T04:00:06;-1.50;99.90
42617;DHT22;28250;52.320;0.360;2023-02-28T04:02:38;-1.60;99.90
42617;DHT22;28250;52.320;0.360;2023-02-28T04:05:05;-1.70;99.90
42617;DHT22;28250;52.320;0.360;2023-02-28T04:07:32;-1.80;99.90
42617;DHT22;28250;52.320;0.360;2023-02-28T04:09:58;-1.90;99.90
42617;DHT22;28250;52.320;0.360;2023-02-28T04:12:25;-2.00;99.90
42617;DHT22;28250;52.320;0.360;2023-02-28T04:14:51;-2.00;99.90
42617;DHT22;28250;52.320;0.360;2023-02-28T04:17:18;-2.00;99.90
42617;DHT22;28250;52.320;0.360;2023-02-28T04:19:44;-2.00;99.90
42617;DHT22;28250;52.320;0.360;2023-02-28T04:22:11;-2.10;99.90
42617;DHT22;28250;52.320;0.360;2023-02-28T04:24:37;-2.20;99.90
42617;DHT22;28250;52.320;0.360;2023-02-28T04:27:08;-2.10;99.90
42617;DHT22;28250;52.320;0.360;2023-02-28T04:29:34;-2.00;99.90
42617;DHT22;28250;52.320;0.360;2023-02-28T04:32:01;-2.10;99.90
42617;DHT22;28250;52.320;0.360;2023-02-28T04:34:29;-2.10;99.90
42617;DHT22;28250;52.320;0.360;2023-02-28T04:36:56;-2.00;99.90
42617;DHT22;28250;52.320;0.360;2023-02-28T04:39:23;-2.00;99.90
42617;DHT22;28250;52.320;0.360;2023-02-28T04:41:50;-2.00;99.90
42617;DHT22;28250;52.320;0.360;2023-02-28T04:44:16;-1.90;99.90
42617;DHT22;28250;52.320;0.360;2023-02-28T04:46:43;-1.80;99.90
42617;DHT22;28250;52.320;0.360;2023-02-28T04:49:10;-1.80;99.90
42617;DHT22;28250;52.320;0.360;2023-02-28T04:51:37;-1.80;99.90
42617;DHT22;28250;52.320;0.360;2023-02-28T04:54:04;-1.80;99.90
42617;DHT22;28250;52.320;0.360;2023-02-28T04:56:30;-1.80;99.90
42617;DHT22;28250;52.320;0.360;2023-02-28T04:58:56;-1.80;99.90
42617;DHT22;28250;52.320;0.360;2023-02-28T05:01:24;-1.80;99.90
42617;DHT22;28250;52.320;0.360;2023-02-28T05:03:52;-1.80;99.90
42617;DHT22;28250;52.320;0.360;2023-02-28T05:06:20;-1.70;99.90
42617;DHT22;28250;52.320;0.360;2023-02-28T05:08:49;-1.80;99.90
42617;DHT22;28250;52.320;0.360;2023-02-28T05:11:17;-1.70;99.90
42617;DHT22;28250;52.320;0.360;2023-02-28T05:13:49;-1.70;99.90
42617;DHT22;28250;52.320;0.360;2023-02-28T05:16:16;-1.70;99.90
42617;DHT22;28250;52.320;0.360;2023-02-28T05:18:42;-1.70;99.90
42617;DHT22;28250;52.320;0.360;2023-02-28T05:23:57;-1.60;99.90
42617;DHT22;28250;52.320;0.360;2023-02-28T05:26:24;-1.50;99.90
42617;DHT22;28250;52.320;0.360;2023-02-28T05:28:50;-1.50;99.90
42617;DHT22;28250;52.320;0.360;2023-02-28T05:31:17;-1.50;99.90
42617;DHT22;28250;52.320;0.360;2023-02-28T05:33:43;-1.50;99.90
42617;DHT22;28250;52.320;0.360;2023-02-28T05:36:09;-1.40;99.90
42617;DHT22;28250;52.320;0.360;2023-02-28T05:38:35;-1.40;99.90
42617;DHT22;28250;52.320;0.360;2023-02-28T05:41:04;-1.30;99.90
42617;DHT22;28250;52.320;0.360;2023-02-28T05:43:32;-1.20;99.90
42617;DHT22;28250;52.320;0.360;2023-02-28T05:45:58;-1.20;99.90
42617;DHT22;28250;52.320;0.360;2023-02-28T05:48:25;-1.10;99.90
42617;DHT22;28250;52.320;0.360;2023-02-28T05:50:52;-1.10;99.90
42617;DHT22;28250;52.320;0.360;2023-02-28T05:53:18;-1.00;99.90
42617;DHT22;28250;52.320;0.360;2023-02-28T05:55:44;-1.00;99.90
42617;DHT22;28250;52.320;0.360;2023-02-28T05:58:10;-1.10;99.90
42617;DHT22;28250;52.320;0.360;2023-02-28T06:00:36;-1.00;99.90
42617;DHT22;28250;52.320;0.360;2023-02-28T06:03:02;-1.00;99.90
42617;DHT22;28250;52.320;0.360;2023-02-28T06:05:29;-1.00;99.90
42617;DHT22;28250;52.320;0.360;2023-02-28T06:07:55;-0.90;99.90
42617;DHT22;28250;52.320;0.360;2023-02-28T06:10:21;-0.90;99.90
42617;DHT22;28250;52.320;0.360;2023-02-28T06:12:47;-0.80;99.90
42617;DHT22;28250;52.320;0.360;2023-02-28T06:15:14;-0.70;99.90
42617;DHT22;28250;52.320;0.360;2023-02-28T06:17:41;-0.60;99.90
42617;DHT22;28250;52.320;0.360;2023-02-28T06:20:08;-0.60;99.90
42617;DHT22;28250;52.320;0.360;2023-02-28T06:22:35;-0.60;99.90
42617;DHT22;28250;52.320;0.360;2023-02-28T06:25:02;-0.50;99.90
42617;DHT22;28250;52.320;0.360;2023-02-28T06:27:30;-0.50;99.90
42617;DHT22;28250;52.320;0.360;2023-02-28T06:29:57;-0.50;99.90
42617;DHT22;28250;52.320;0.360;2023-02-28T06:32:23;-0.40;99.90
42617;DHT22;28250;52.320;0.360;2023-02-28T06:34:49;-0.40;99.90
42617;DHT22;28250;52.320;0.360;2023-02-28T06:37:16;-0.40;99.90
42617;DHT22;28250;52.320;0.360;2023-02-28T06:39:43;-0.40;99.90
42617;DHT22;28250;52.320;0.360;2023-02-28T06:42:10;-0.30;99.90
42617;DHT22;28250;52.320;0.360;2023-02-28T06:44:36;-0.30;99.90
42617;DHT22;28250;52.320;0.360;2023-02-28T06:47:03;-0.30;99.90
42617;DHT22;28250;52.320;0.360;2023-02-28T06:49:32;-0.20;99.90
42617;DHT22;28250;52.320;0.360;2023-02-28T06:51:59;-0.20;99.90
42617;DHT22;28250;52.320;0.360;2023-02-28T06:54:25;-0.30;99.90
42617;DHT22;28250;52.320;0.360;2023-02-28T06:56:51;-0.20;99.90
42617;DHT22;28250;52.320;0.360;2023-02-28T06:59:17;-0.10;99.90
42617;DHT22;28250;52.320;0.360;2023-02-28T07:01:43;0.00;99.90
42617;DHT22;28250;52.320;0.360;2023-02-28T07:04:09;-0.10;99.90
42617;DHT22;28250;52.320;0.360;2023-02-28T07:06:36;0.00;99.90
42617;DHT22;28250;52.320;0.360;2023-02-28T07:09:02;0.00;99.90
42617;DHT22;28250;52.320;0.360;2023-02-28T07:11:29;0.10;99.90
42617;DHT22;28250;52.320;0.360;2023-02-28T07:13:55;0.10;99.90
42617;DHT22;28250;52.320;0.360;2023-02-28T07:16:22;0.10;99.90
42617;DHT22;28250;52.320;0.360;2023-02-28T07:18:49;0.10;99.90
42617;DHT22;28250;52.320;0.360;2023-02-28T07:21:15;0.30;99.90
42617;DHT22;28250;52.320;0.360;2023-02-28T07:23:41;0.30;99.90
42617;DHT22;28250;52.320;0.360;2023-02-28T07:26:10;0.30;99.90
42617;DHT22;28250;52.320;0.360;2023-02-28T07:28:40;0.40;99.90
42617;DHT22;28250;52.320;0.360;2023-02-28T07:31:08;0.40;99.90
42617;DHT22;28250;52.320;0.360;2023-02-28T07:33:35;0.50;99.90
42617;DHT22;28250;52.320;0.360;2023-02-28T07:36:02;0.40;99.90
42617;DHT22;28250;52.320;0.360;2023-02-28T07:38:30;0.50;99.90
42617;DHT22;28250;52.320;0.360;2023-02-28T07:40:56;0.60;99.90
42617;DHT22;28250;52.320;0.360;2023-02-28T07:43:22;0.60;99.90
42617;DHT22;28250;52.320;0.360;2023-02-28T07:45:48;0.50;99.90
42617;DHT22;28250;52.320;0.360;2023-02-28T07:48:15;0.70;99.90
42617;DHT22;28250;52.320;0.360;2023-02-28T07:50:41;0.80;99.90
42617;DHT22;28250;52.320;0.360;2023-02-28T07:53:07;0.90;99.90
42617;DHT22;28250;52.320;0.360;2023-02-28T07:55:33;0.90;99.90
42617;DHT22;28250;52.320;0.360;2023-02-28T07:58:00;1.00;99.90
42617;DHT22;28250;52.320;0.360;2023-02-28T08:00:27;1.10;99.90
42617;DHT22;28250;52.320;0.360;2023-02-28T08:02:54;1.20;99.90
42617;DHT22;28250;52.320;0.360;2023-02-28T08:05:20;1.30;99.90
42617;DHT22;28250;52.320;0.360;2023-02-28T08:07:48;1.40;99.90
42617;DHT22;28250;52.320;0.360;2023-02-28T08:10:14;1.50;99.90
42617;DHT22;28250;52.320;0.360;2023-02-28T08:12:41;1.50;99.90
42617;DHT22;28250;52.320;0.360;2023-02-28T08:15:07;1.60;99.90
42617;DHT22;28250;52.320;0.360;2023-02-28T08:17:34;1.80;99.90
42617;DHT22;28250;52.320;0.360;2023-02-28T08:20:00;2.00;99.90
42617;DHT22;28250;52.320;0.360;2023-02-28T08:22:26;2.10;99.90
42617;DHT22;28250;52.320;0.360;2023-02-28T08:24:52;2.30;99.90
42617;DHT22;28250;52.320;0.360;2023-02-28T08:27:19;2.50;99.90
42617;DHT22;28250;52.320;0.360;2023-02-28T08:29:45;2.60;99.90
42617;DHT22;28250;52.320;0.360;2023-02-28T08:32:11;2.80;99.90
42617;DHT22;28250;52.320;0.360;2023-02-28T08:34:38;2.90;99.90
42617;DHT22;28250;52.320;0.360;2023-02-28T08:37:05;3.10;99.90
42617;DHT22;28250;52.320;0.360;2023-02-28T08:39:35;3.20;99.90
42617;DHT22;28250;52.320;0.360;2023-02-28T08:42:02;3.40;99.90
42617;DHT22;28250;52.320;0.360;2023-02-28T08:44:29;3.50;99.90
42617;DHT22;28250;52.320;0.360;2023-02-28T08:46:55;3.70;99.90
42617;DHT22;28250;52.320;0.360;2023-02-28T08:49:21;3.80;99.90
42617;DHT22;28250;52.320;0.360;2023-02-28T08:51:47;3.90;99.90
42617;DHT22;28250;52.320;0.360;2023-02-28T08:54:13;4.10;99.90
42617;DHT22;28250;52.320;0.360;2023-02-28T08:56:45;4.20;99.90
42617;DHT22;28250;52.320;0.360;2023-02-28T08:59:20;4.40;99.90
42617;DHT22;28250;52.320;0.360;2023-02-28T09:01:46;4.60;99.90
42617;DHT22;28250;52.320;0.360;2023-02-28T09:04:12;4.70;99.90
42617;DHT22;28250;52.320;0.360;2023-02-28T09:06:39;4.90;99.90
42617;DHT22;28250;52.320;0.360;2023-02-28T09:09:05;4.90;99.90
42617;DHT22;28250;52.320;0.360;2023-02-28T09:11:33;5.00;99.90
42617;DHT22;28250;52.320;0.360;2023-02-28T09:14:01;5.00;99.90
42617;DHT22;28250;52.320;0.360;2023-02-28T09:16:29;5.10;99.90
42617;DHT22;28250;52.320;0.360;2023-02-28T09:18:56;5.10;99.90
42617;DHT22;28250;52.320;0.360;2023-02-28T09:21:23;5.20;99.90
42617;DHT22;28250;52.320;0.360;2023-02-28T09:23:49;5.20;99.90
42617;DHT22;28250;52.320;0.360;2023-02-28T09:26:18;5.30;99.90
42617;DHT22;28250;52.320;0.360;2023-02-28T09:28:49;5.50;99.90
42617;DHT22;28250;52.320;0.360;2023-02-28T09:31:16;5.60;99.90
42617;DHT22;28250;52.320;0.360;2023-02-28T09:33:47;5.60;99.90
42617;DHT22;28250;52.320;0.360;2023-02-28T09:36:15;5.60;99.90
42617;DHT22;28250;52.320;0.360;2023-02-28T09:38:41;5.50;99.90
42617;DHT22;28250;52.320;0.360;2023-02-28T09:41:14;5.60;99.90
42617;DHT22;28250;52.320;0.360;2023-02-28T09:43:44;5.70;99.90
42617;DHT22;28250;52.320;0.360;2023-02-28T09:48:54;5.90;99.90
42617;DHT22;28250;52.320;0.360;2023-02-28T09:51:28;5.90;99.90
42617;DHT22;28250;52.320;0.360;2023-02-28T09:53:56;6.00;99.90
42617;DHT22;28250;52.320;0.360;2023-02-28T09:56:24;6.00;99.90
42617;DHT22;28250;52.320;0.360;2023-02-28T09:59:00;6.00;99.90
42617;DHT22;28250;52.320;0.360;2023-02-28T10:09:53;6.60;99.90
42617;DHT22;28250;52.320;0.360;2023-02-28T10:12:22;6.80;99.90
42617;DHT22;28250;52.320;0.360;2023-02-28T10:14:50;6.90;99.90
42617;DHT22;28250;52.320;0.360;2023-02-28T10:17:19;6.90;99.90
42617;DHT22;28250;52.320;0.360;2023-02-28T10:24:46;7.00;99.90
42617;DHT22;28250;52.320;0.360;2023-02-28T10:29:45;7.40;99.90
42617;DHT22;28250;52.320;0.360;2023-02-28T10:32:14;7.30;99.90
42617;DHT22;28250;52.320;0.360;2023-02-28T10:34:43;7.20;99.90
42617;DHT22;28250;52.320;0.360;2023-02-28T10:37:12;7.30;99.90
42617;DHT22;28250;52.320;0.360;2023-02-28T10:39:40;7.50;99.90
42617;DHT22;28250;52.320;0.360;2023-02-28T10:47:54;7.60;99.90
42617;DHT22;28250;52.320;0.360;2023-02-28T10:52:53;7.20;99.90
42617;DHT22;28250;52.320;0.360;2023-02-28T10:55:21;7.00;99.90
42617;DHT22;28250;52.320;0.360;2023-02-28T10:57:50;7.00;99.90
42617;DHT22;28250;52.320;0.360;2023-02-28T11:00:19;7.00;99.90
42617;DHT22;28250;52.320;0.360;2023-02-28T11:02:47;7.00;99.90
42617;DHT22;28250;52.320;0.360;2023-02-28T11:10:28;7.20;99.90
42617;DHT22;28250;52.320;0.360;2023-02-28T11:12:57;7.40;99.90
42617;DHT22;28250;52.320;0.360;2023-02-28T11:15:28;7.50;99.90
42617;DHT22;28250;52.320;0.360;2023-02-28T11:18:00;7.70;99.90
42617;DHT22;28250;52.320;0.360;2023-02-28T11:20:28;8.00;99.90
42617;DHT22;28250;52.320;0.360;2023-02-28T11:22:57;8.10;99.90
42617;DHT22;28250;52.320;0.360;2023-02-28T11:31:00;8.60;99.90
42617;DHT22;28250;52.320;0.360;2023-02-28T11:36:20;8.50;99.90
42617;DHT22;28250;52.320;0.360;2023-02-28T11:38:50;8.10;99.90
42617;DHT22;28250;52.320;0.360;2023-02-28T11:46:37;8.20;99.90
42617;DHT22;28250;52.320;0.360;2023-02-28T11:52:06;8.00;99.90
42617;DHT22;28250;52.320;0.360;2023-02-28T11:57:20;7.70;99.90
42617;DHT22;28250;52.320;0.360;2023-02-28T12:13:18;8.00;99.90
42617;DHT22;28250;52.320;0.360;2023-02-28T12:15:53;8.00;99.90
42617;DHT22;28250;52.320;0.360;2023-02-28T12:29:03;8.00;99.90
42617;DHT22;28250;52.320;0.360;2023-02-28T12:31:36;8.00;99.90
42617;DHT22;28250;52.320;0.360;2023-02-28T12:34:08;8.00;99.90
42617;DHT22;28250;52.320;0.360;2023-02-28T12:36:36;8.00;99.90
42617;DHT22;28250;52.320;0.360;2023-02-28T12:42:10;7.90;99.90
42617;DHT22;28250;52.320;0.360;2023-02-28T12:44:42;7.90;99.90
42617;DHT22;28250;52.320;0.360;2023-02-28T12:47:14;7.90;99.90
42617;DHT22;28250;52.320;0.360;2023-02-28T12:55:36;8.00;99.90
42617;DHT22;28250;52.320;0.360;2023-02-28T12:58:13;7.90;99.90
42617;DHT22;28250;52.320;0.360;2023-02-28T13:04:04;7.80;99.90
42617;DHT22;28250;52.320;0.360;2023-02-28T13:09:20;7.80;99.90
42617;DHT22;28250;52.320;0.360;2023-02-28T13:11:47;7.80;99.90
42617;DHT22;28250;52.320;0.360;2023-02-28T13:14:22;7.80;99.90
42617;DHT22;28250;52.320;0.360;2023-02-28T13:19:24;7.90;99.90
42617;DHT22;28250;52.320;0.360;2023-02-28T13:21:52;8.00;99.90
42617;DHT22;28250;52.320;0.360;2023-02-28T13:29:35;7.90;99.90
42617;DHT22;28250;52.320;0.360;2023-02-28T13:34:36;8.00;99.90
42617;DHT22;28250;52.320;0.360;2023-02-28T13:39:55;8.00;99.90
42617;DHT22;28250;52.320;0.360;2023-02-28T14:03:41;8.40;99.90
42617;DHT22;28250;52.320;0.360;2023-02-28T14:09:02;8.30;99.90
42617;DHT22;28250;52.320;0.360;2023-02-28T14:11:42;8.30;99.90
42617;DHT22;28250;52.320;0.360;2023-02-28T14:14:09;8.30;99.90
42617;DHT22;28250;52.320;0.360;2023-02-28T14:17:01;8.20;99.90
42617;DHT22;28250;52.320;0.360;2023-02-28T14:19:29;8.30;99.90
42617;DHT22;28250;52.320;0.360;2023-02-28T14:32:33;8.10;99.90
42617;DHT22;28250;52.320;0.360;2023-02-28T14:37:39;8.10;99.90
42617;DHT22;28250;52.320;0.360;2023-02-28T14:42:56;8.10;99.90
42617;DHT22;28250;52.320;0.360;2023-02-28T14:45:25;8.20;99.90
42617;DHT22;28250;52.320;0.360;2023-02-28T14:47:55;8.10;99.90
42617;DHT22;28250;52.320;0.360;2023-02-28T14:50:23;8.00;99.90
42617;DHT22;28250;52.320;0.360;2023-02-28T14:52:58;8.00;99.90
42617;DHT22;28250;52.320;0.360;2023-02-28T14:55:26;8.00;99.90
42617;DHT22;28250;52.320;0.360;2023-02-28T14:57:56;8.00;99.90
42617;DHT22;28250;52.320;0.360;2023-02-28T15:00:26;7.90;99.90
42617;DHT22;28250;52.320;0.360;2023-02-28T15:02:54;7.90;99.90
42617;DHT22;28250;52.320;0.360;2023-02-28T15:05:34;7.90;99.90
42617;DHT22;28250;52.320;0.360;2023-02-28T15:08:05;7.90;99.90
42617;DHT22;28250;52.320;0.360;2023-02-28T15:10:37;7.80;99.90
42617;DHT22;28250;52.320;0.360;2023-02-28T15:13:07;7.80;99.90
42617;DHT22;28250;52.320;0.360;2023-02-28T15:21:13;7.80;99.90
42617;DHT22;28250;52.320;0.360;2023-02-28T15:23:43;7.80;99.90
42617;DHT22;28250;52.320;0.360;2023-02-28T15:26:16;7.60;99.90
42617;DHT22;28250;52.320;0.360;2023-02-28T15:28:44;7.50;99.90
42617;DHT22;28250;52.320;0.360;2023-02-28T15:34:03;7.50;99.90
42617;DHT22;28250;52.320;0.360;2023-02-28T15:36:31;7.50;99.90
42617;DHT22;28250;52.320;0.360;2023-02-28T15:39:03;7.60;99.90
42617;DHT22;28250;52.320;0.360;2023-02-28T15:41:43;7.60;99.90
42617;DHT22;28250;52.320;0.360;2023-02-28T15:46:58;7.60;99.90
42617;DHT22;28250;52.320;0.360;2023-02-28T15:49:25;7.60;99.90
42617;DHT22;28250;52.320;0.360;2023-02-28T15:51:52;7.60;99.90
42617;DHT22;28250;52.320;0.360;2023-02-28T15:54:22;7.60;99.90
42617;DHT22;28250;52.320;0.360;2023-02-28T15:56:51;7.50;99.90
42617;DHT22;28250;52.320;0.360;2023-02-28T15:59:20;7.50;99.90
42617;DHT22;28250;52.320;0.360;2023-02-28T16:02:01;7.50;99.90
42617;DHT22;28250;52.320;0.360;2023-02-28T16:07:32;7.30;99.90
42617;DHT22;28250;52.320;0.360;2023-02-28T16:09:59;7.40;99.90
42617;DHT22;28250;52.320;0.360;2023-02-28T16:12:28;7.30;99.90
42617;DHT22;28250;52.320;0.360;2023-02-28T16:14:57;7.30;99.90
42617;DHT22;28250;52.320;0.360;2023-02-28T16:17:25;7.30;99.90
42617;DHT22;28250;52.320;0.360;2023-02-28T16:19:53;7.30;99.90
42617;DHT22;28250;52.320;0.360;2023-02-28T16:22:20;7.30;99.90
42617;DHT22;28250;52.320;0.360;2023-02-28T16:24:47;7.30;99.90
42617;DHT22;28250;52.320;0.360;2023-02-28T16:27:16;7.20;99.90
42617;DHT22;28250;52.320;0.360;2023-02-28T16:29:47;7.20;99.90
42617;DHT22;28250;52.320;0.360;2023-02-28T16:32:14;7.20;99.90
42617;DHT22;28250;52.320;0.360;2023-02-28T16:34:42;7.10;99.90
42617;DHT22;28250;52.320;0.360;2023-02-28T16:37:11;7.10;99.90
42617;DHT22;28250;52.320;0.360;2023-02-28T16:39:39;7.00;99.90
42617;DHT22;28250;52.320;0.360;2023-02-28T16:42:05;7.00;99.90
42617;DHT22;28250;52.320;0.360;2023-02-28T16:44:34;7.00;99.90
42617;DHT22;28250;52.320;0.360;2023-02-28T16:47:01;7.00;99.90
42617;DHT22;28250;52.320;0.360;2023-02-28T16:49:28;7.00;99.90
42617;DHT22;28250;52.320;0.360;2023-02-28T16:51:55;7.00;99.90
42617;DHT22;28250;52.320;0.360;2023-02-28T16:54:21;6.90;99.90
42617;DHT22;28250;52.320;0.360;2023-02-28T16:56:48;6.90;99.90
42617;DHT22;28250;52.320;0.360;2023-02-28T16:59:15;6.90;99.90
42617;DHT22;28250;52.320;0.360;2023-02-28T17:01:45;6.90;99.90
42617;DHT22;28250;52.320;0.360;2023-02-28T17:04:11;6.80;99.90
42617;DHT22;28250;52.320;0.360;2023-02-28T17:06:37;6.80;99.90
42617;DHT22;28250;52.320;0.360;2023-02-28T17:09:04;6.80;99.90
42617;DHT22;28250;52.320;0.360;2023-02-28T17:11:30;6.80;99.90
42617;DHT22;28250;52.320;0.360;2023-02-28T17:13:56;6.80;99.90
42617;DHT22;28250;52.320;0.360;2023-02-28T17:16:26;6.70;99.90
42617;DHT22;28250;52.320;0.360;2023-02-28T17:18:54;6.70;99.90
42617;DHT22;28250;52.320;0.360;2023-02-28T17:21:22;6.70;99.90
42617;DHT22;28250;52.320;0.360;2023-02-28T17:23:48;6.70;99.90
42617;DHT22;28250;52.320;0.360;2023-02-28T17:26:15;6.70;99.90
42617;DHT22;28250;52.320;0.360;2023-02-28T17:28:46;6.70;99.90
42617;DHT22;28250;52.320;0.360;2023-02-28T17:31:13;6.60;99.90
42617;DHT22;28250;52.320;0.360;2023-02-28T17:33:40;6.60;99.90
42617;DHT22;28250;52.320;0.360;2023-02-28T17:36:06;6.60;99.90
42617;DHT22;28250;52.320;0.360;2023-02-28T17:38:36;6.50;99.90
42617;DHT22;28250;52.320;0.360;2023-02-28T17:41:02;6.50;99.90
42617;DHT22;28250;52.320;0.360;2023-02-28T17:43:29;6.50;99.90
42617;DHT22;28250;52.320;0.360;2023-02-28T17:45:55;6.50;99.90
42617;DHT22;28250;52.320;0.360;2023-02-28T17:48:21;6.50;99.90
42617;DHT22;28250;52.320;0.360;2023-02-28T17:50:48;6.40;99.90
42617;DHT22;28250;52.320;0.360;2023-02-28T17:53:14;6.40;99.90
42617;DHT22;28250;52.320;0.360;2023-02-28T17:55:40;6.40;99.90
42617;DHT22;28250;52.320;0.360;2023-02-28T17:58:09;6.40;99.90
42617;DHT22;28250;52.320;0.360;2023-02-28T18:00:38;6.40;99.90
42617;DHT22;28250;52.320;0.360;2023-02-28T18:03:04;6.30;99.90
42617;DHT22;28250;52.320;0.360;2023-02-28T18:05:30;6.30;99.90
42617;DHT22;28250;52.320;0.360;2023-02-28T18:07:57;6.30;99.90
42617;DHT22;28250;52.320;0.360;2023-02-28T18:10:24;6.30;99.90
42617;DHT22;28250;52.320;0.360;2023-02-28T18:12:53;6.30;99.90
42617;DHT22;28250;52.320;0.360;2023-02-28T18:15:20;6.30;99.90
42617;DHT22;28250;52.320;0.360;2023-02-28T18:17:48;6.30;99.90
42617;DHT22;28250;52.320;0.360;2023-02-28T18:20:14;6.20;99.90
42617;DHT22;28250;52.320;0.360;2023-02-28T18:22:41;6.20;99.90
42617;DHT22;28250;52.320;0.360;2023-02-28T18:25:08;6.20;99.90
42617;DHT22;28250;52.320;0.360;2023-02-28T18:27:39;6.10;99.90
42617;DHT22;28250;52.320;0.360;2023-02-28T18:30:06;6.10;99.90
42617;DHT22;28250;52.320;0.360;2023-02-28T18:32:32;6.10;99.90
42617;DHT22;28250;52.320;0.360;2023-02-28T18:34:58;6.00;99.90
42617;DHT22;28250;52.320;0.360;2023-02-28T18:37:24;6.00;99.90
42617;DHT22;28250;52.320;0.360;2023-02-28T18:39:51;6.00;99.90
42617;DHT22;28250;52.320;0.360;2023-02-28T18:42:18;5.90;99.90
42617;DHT22;28250;52.320;0.360;2023-02-28T18:44:44;5.90;99.90
42617;DHT22;28250;52.320;0.360;2023-02-28T18:47:10;5.90;99.90
42617;DHT22;28250;52.320;0.360;2023-02-28T18:49:37;5.90;99.90
42617;DHT22;28250;52.320;0.360;2023-02-28T18:52:03;5.90;99.90
42617;DHT22;28250;52.320;0.360;2023-02-28T18:54:29;5.90;99.90
42617;DHT22;28250;52.320;0.360;2023-02-28T18:56:55;5.80;99.90
42617;DHT22;28250;52.320;0.360;2023-02-28T18:59:22;5.90;99.90
42617;DHT22;28250;52.320;0.360;2023-02-28T19:01:48;5.80;99.90
42617;DHT22;28250;52.320;0.360;2023-02-28T19:04:14;5.90;99.90